首页
METAR-TAF:

METAR-TAF

机场 :

法兰克福-哈恩机场

Hahn, 德国

纬度: 49-57N, 经度: 007-16E, 海拔: 491米

当前天气观测

该预报发布于25分钟前的21:20 UTC
风速5节,风向东转东北
温度 17°C
湿度 72%
气压 1025 hPa
能见度10公里或以上
1500米以下无云,无积雨云

METAR: EDFH 212120Z 06005KT CAVOK 17/12 Q1025

时间: 23:45 (21:45 UTC)

预报

该预报发布于4小时和45分钟前的17:00 UTC
预报有效从21日的 18点(UTC)到 22日的 18点(UTC)
风速5节,风向西
能见度10公里或以上
1500米以下无云,无积雨云
成为
从 21日的 20点(UTC)到 21日的 22点(UTC)
风速3节,风向多变
成为
从 22日的 07点(UTC)到 22日的 09点(UTC)
风速7节,风向西转西北
成为
从 22日的 15点(UTC)到 22日的 18点(UTC)
风速4节,风向北转东北

TAF: EDFH 211700Z 2118/2218 28005KT CAVOK BECMG 2120/2122 VRB03KT BECMG 2207/2209 29007KT BECMG 2215/2218 03004KT

超过4000个机场的气象观测和天气预报(METAR&TAF报告)。

可查询的气象台以黄色和红色小点在地图上表示。

将鼠标移到小点上方,可查看气象台名称。

然后点击查看天气观测和预报。

如需切换地图:点击带黑十字的绿色按钮放大地图;点击带横线的绿色按钮缩小地图;或者点击绿色箭头查看邻近地区的地图。


METAR-TAF: